createdAt,value
2017-10-16T00:00:06.746Z,13.47
2017-10-16T00:02:33.512Z,12.83
2017-10-16T00:05:01.296Z,18.60
2017-10-16T00:07:28.363Z,14.10
2017-10-16T00:09:55.131Z,12.57
2017-10-16T00:12:21.939Z,12.73
2017-10-16T00:14:48.707Z,13.50
2017-10-16T00:17:15.827Z,15.93
2017-10-16T00:19:43.439Z,16.30
2017-10-16T00:22:10.218Z,16.67
2017-10-16T00:24:36.991Z,13.63
2017-10-16T00:27:04.491Z,14.07
2017-10-16T00:29:31.306Z,15.53
2017-10-16T00:31:58.280Z,15.60
2017-10-16T00:34:25.183Z,14.73
2017-10-16T00:36:51.987Z,16.97
2017-10-16T00:39:18.810Z,19.33
2017-10-16T00:41:45.634Z,22.73
2017-10-16T00:44:12.419Z,19.33
2017-10-16T00:46:39.217Z,18.50
2017-10-16T00:49:07.064Z,16.40
2017-10-16T00:51:33.839Z,17.60
2017-10-16T00:54:00.955Z,17.10
2017-10-16T00:56:27.758Z,16.80
2017-10-16T00:58:55.257Z,17.13
2017-10-16T01:01:22.038Z,15.20
2017-10-16T01:03:48.886Z,19.53
2017-10-16T01:06:16.358Z,17.70
2017-10-16T01:08:43.130Z,19.83
2017-10-16T01:11:09.945Z,19.57
2017-10-16T01:13:36.764Z,29.90
2017-10-16T01:16:04.708Z,18.50
2017-10-16T01:18:32.604Z,16.67
2017-10-16T01:21:00.400Z,17.67
2017-10-16T01:23:27.209Z,24.53
2017-10-16T01:25:54.049Z,19.13
2017-10-16T01:28:21.510Z,21.20
2017-10-16T01:30:48.322Z,21.50
2017-10-16T01:33:15.148Z,20.40
2017-10-16T01:35:41.959Z,22.90
2017-10-16T01:38:08.823Z,16.63
2017-10-16T01:40:35.666Z,21.47
2017-10-16T01:43:03.228Z,20.57
2017-10-16T01:45:30.020Z,23.87
2017-10-16T01:47:56.875Z,18.03
2017-10-16T01:50:23.692Z,21.97
2017-10-16T01:52:50.494Z,22.73
2017-10-16T01:55:17.322Z,19.47
2017-10-16T01:57:44.906Z,20.47
2017-10-16T02:00:12.183Z,26.47
2017-10-16T02:02:39.048Z,32.03
2017-10-16T02:05:06.204Z,21.90
2017-10-16T02:07:32.986Z,21.00
2017-10-16T02:09:59.788Z,20.17
2017-10-16T02:12:26.583Z,27.53
2017-10-16T02:14:53.370Z,32.50
2017-10-16T02:17:20.172Z,21.33
2017-10-16T02:19:46.960Z,23.57
2017-10-16T02:22:13.734Z,22.43
2017-10-16T02:24:40.576Z,30.63
2017-10-16T02:27:07.345Z,22.30
2017-10-16T02:29:34.095Z,21.23
2017-10-16T02:32:00.929Z,28.07
2017-10-16T02:34:27.696Z,24.07
2017-10-16T02:36:54.489Z,26.53
2017-10-16T02:39:21.894Z,23.53
2017-10-16T02:41:48.658Z,29.80
2017-10-16T02:44:15.414Z,27.17
2017-10-16T02:46:42.698Z,25.20
2017-10-16T02:49:09.495Z,26.73
2017-10-16T02:51:36.295Z,24.90
2017-10-16T02:54:03.692Z,32.90
2017-10-16T02:56:30.475Z,25.30
2017-10-16T02:58:57.238Z,27.03
2017-10-16T03:01:24.059Z,32.93
2017-10-16T03:03:51.454Z,29.30
2017-10-16T03:06:18.255Z,28.00
2017-10-16T03:08:45.113Z,29.17
2017-10-16T03:11:12.169Z,28.27
2017-10-16T03:13:38.998Z,32.77
2017-10-16T03:16:05.837Z,28.77
2017-10-16T03:18:32.627Z,27.53
2017-10-16T03:21:00.114Z,27.57
2017-10-16T03:23:26.927Z,29.20
2017-10-16T03:25:54.440Z,28.97
2017-10-16T03:28:21.230Z,26.97
2017-10-16T03:30:48.083Z,25.97
2017-10-16T03:33:15.835Z,31.77
2017-10-16T03:35:42.683Z,35.07
2017-10-16T03:38:10.189Z,30.93
2017-10-16T03:40:36.995Z,28.67
2017-10-16T03:43:03.777Z,26.20
2017-10-16T03:45:30.619Z,34.33
2017-10-16T03:47:57.404Z,34.47
2017-10-16T03:50:24.239Z,30.30
2017-10-16T03:52:51.080Z,37.57
2017-10-16T03:55:17.937Z,40.80
2017-10-16T03:57:44.770Z,34.00
2017-10-16T04:00:11.610Z,37.60
2017-10-16T04:02:38.452Z,33.90
2017-10-16T04:05:05.812Z,36.83
2017-10-16T04:07:32.650Z,34.57
2017-10-16T04:10:00.452Z,36.27
2017-10-16T04:12:27.239Z,32.93
2017-10-16T04:14:54.061Z,36.33
2017-10-16T04:17:20.883Z,41.00
2017-10-16T04:19:47.681Z,35.67
2017-10-16T04:22:14.566Z,31.03
2017-10-16T04:24:41.365Z,31.07
2017-10-16T04:27:08.188Z,34.80
2017-10-16T04:29:35.026Z,38.47
2017-10-16T04:32:01.794Z,33.90
2017-10-16T04:34:28.594Z,38.17
2017-10-16T04:36:55.436Z,36.27
2017-10-16T04:39:22.218Z,39.03
2017-10-16T04:41:49.428Z,38.87
2017-10-16T04:44:17.034Z,40.30
2017-10-16T04:46:44.522Z,41.23
2017-10-16T04:49:11.424Z,39.20
2017-10-16T04:51:38.835Z,36.40
2017-10-16T04:54:05.632Z,45.63
2017-10-16T04:56:32.500Z,39.77
2017-10-16T04:59:00.075Z,48.70
2017-10-16T05:01:27.065Z,36.43
2017-10-16T05:03:54.230Z,46.30
2017-10-16T05:06:21.100Z,41.80
2017-10-16T05:08:48.982Z,43.30
2017-10-16T05:11:16.197Z,39.40
2017-10-16T05:13:43.973Z,44.67
2017-10-16T05:16:10.760Z,40.10
2017-10-16T05:18:37.662Z,37.23
2017-10-16T05:21:04.539Z,45.73
2017-10-16T05:23:31.310Z,47.20
2017-10-16T05:25:58.102Z,41.17
2017-10-16T05:28:24.919Z,41.30
2017-10-16T05:30:51.696Z,43.13
2017-10-16T05:33:18.477Z,40.80
2017-10-16T05:35:45.280Z,38.90
2017-10-16T05:38:12.143Z,51.50
2017-10-16T05:40:39.576Z,43.73
2017-10-16T05:43:06.395Z,41.73
2017-10-16T05:45:44.014Z,41.90
2017-10-16T05:48:10.840Z,50.03
2017-10-16T05:50:38.431Z,50.50
2017-10-16T05:53:05.207Z,49.93
2017-10-16T05:55:32.179Z,42.63
2017-10-16T05:57:58.971Z,36.10
2017-10-16T06:00:25.765Z,47.40
2017-10-16T06:02:52.576Z,48.90
2017-10-16T06:05:19.656Z,42.53
2017-10-16T06:07:46.504Z,39.60
2017-10-16T06:10:13.370Z,54.73
2017-10-16T06:12:40.182Z,46.30
2017-10-16T06:15:06.991Z,44.07
2017-10-16T06:17:33.827Z,43.47
2017-10-16T06:20:01.240Z,42.03
2017-10-16T06:22:28.056Z,41.57
2017-10-16T06:24:54.866Z,42.90
2017-10-16T06:27:21.646Z,43.87
2017-10-16T06:29:48.502Z,39.70
2017-10-16T06:32:15.405Z,43.30
2017-10-16T06:34:42.583Z,43.33
2017-10-16T06:37:10.142Z,50.10
2017-10-16T06:39:36.984Z,47.57
2017-10-16T06:42:03.842Z,40.10
2017-10-16T06:44:30.935Z,45.10
2017-10-16T06:46:57.776Z,49.77
2017-10-16T06:49:25.082Z,58.40
2017-10-16T06:51:51.914Z,46.77
2017-10-16T06:54:18.746Z,44.40
2017-10-16T06:56:45.527Z,42.00
2017-10-16T06:59:12.850Z,51.77
2017-10-16T07:01:39.709Z,59.43
2017-10-16T07:04:06.574Z,46.60
2017-10-16T07:06:33.363Z,43.83
2017-10-16T07:09:00.167Z,47.53
2017-10-16T07:11:26.977Z,45.17
2017-10-16T07:13:54.087Z,48.80
2017-10-16T07:16:20.971Z,50.70
2017-10-16T07:18:47.814Z,45.03
2017-10-16T07:21:14.655Z,55.63
2017-10-16T07:23:41.673Z,43.60
2017-10-16T07:26:08.490Z,44.60
2017-10-16T07:28:35.579Z,47.00
2017-10-16T07:31:02.976Z,42.43
2017-10-16T07:33:30.206Z,45.67
2017-10-16T07:35:57.554Z,45.30
2017-10-16T07:38:24.403Z,43.50
2017-10-16T07:40:51.238Z,48.27
2017-10-16T07:43:18.031Z,47.80
2017-10-16T07:45:45.438Z,46.63
2017-10-16T07:48:12.232Z,45.17
2017-10-16T07:50:39.009Z,52.77
2017-10-16T07:55:38.913Z,48.00
2017-10-16T07:58:05.742Z,50.67
2017-10-16T08:00:32.571Z,46.10
2017-10-16T08:02:59.435Z,57.50
2017-10-16T08:05:26.286Z,50.97
2017-10-16T08:07:53.089Z,52.03
2017-10-16T08:10:20.587Z,45.97
2017-10-16T08:12:47.453Z,51.03
2017-10-16T08:15:14.713Z,63.50
2017-10-16T08:17:41.539Z,58.50
2017-10-16T08:20:08.340Z,52.90
2017-10-16T08:22:35.292Z,59.37
2017-10-16T08:25:02.150Z,57.50
2017-10-16T08:27:28.998Z,59.43
2017-10-16T08:29:55.871Z,57.23
2017-10-16T08:32:22.682Z,62.13
2017-10-16T08:34:49.567Z,56.50
2017-10-16T08:37:16.523Z,64.60
2017-10-16T08:39:43.330Z,59.70
2017-10-16T08:42:10.173Z,55.40
2017-10-16T08:44:38.162Z,55.80
2017-10-16T08:47:05.677Z,52.17
2017-10-16T08:49:32.872Z,61.67
2017-10-16T08:52:00.196Z,55.53
2017-10-16T08:54:27.027Z,64.63
2017-10-16T08:56:54.567Z,50.80
2017-10-16T08:59:21.397Z,53.60
2017-10-16T09:01:49.124Z,57.70
2017-10-16T09:04:15.953Z,46.80
2017-10-16T09:06:42.799Z,48.17
2017-10-16T09:09:09.617Z,55.90
2017-10-16T09:11:36.472Z,51.43
2017-10-16T09:14:03.279Z,55.70
2017-10-16T09:16:30.160Z,50.77
2017-10-16T09:18:57.042Z,56.70
2017-10-16T09:21:23.841Z,52.20
2017-10-16T09:23:50.813Z,50.43
2017-10-16T09:26:17.776Z,44.77
2017-10-16T09:28:44.608Z,48.53
2017-10-16T09:31:11.458Z,47.33
2017-10-16T09:33:38.304Z,54.00
2017-10-16T09:36:05.144Z,48.43
2017-10-16T09:38:32.001Z,53.23
2017-10-16T09:40:59.195Z,53.07
2017-10-16T09:43:26.044Z,52.00
2017-10-16T09:45:53.111Z,58.57
2017-10-16T09:48:19.974Z,55.27
2017-10-16T09:50:46.827Z,54.93
2017-10-16T09:53:13.652Z,59.93
2017-10-16T09:55:40.487Z,54.77
2017-10-16T09:58:07.278Z,48.90
2017-10-16T10:00:34.243Z,46.63
2017-10-16T10:03:01.095Z,54.13
2017-10-16T10:05:27.942Z,55.43
2017-10-16T10:07:54.748Z,47.30
2017-10-16T10:10:21.674Z,53.87
2017-10-16T10:12:48.515Z,51.93
2017-10-16T10:15:15.305Z,46.23
2017-10-16T10:17:42.196Z,56.50
2017-10-16T10:20:09.402Z,48.80
2017-10-16T10:22:36.209Z,54.53
2017-10-16T10:25:03.050Z,50.70
2017-10-16T10:27:30.282Z,47.60
2017-10-16T10:29:57.080Z,48.37
2017-10-16T10:32:23.899Z,46.80
2017-10-16T10:34:50.704Z,48.33
2017-10-16T10:37:17.519Z,49.17
2017-10-16T10:39:45.149Z,47.50
2017-10-16T10:42:11.949Z,50.33
2017-10-16T10:44:39.226Z,46.57
2017-10-16T10:47:06.045Z,55.73
2017-10-16T10:49:32.878Z,44.73
2017-10-16T10:51:59.713Z,52.10
2017-10-16T10:54:27.291Z,48.00
2017-10-16T10:56:55.283Z,56.03
2017-10-16T10:59:22.089Z,48.70
2017-10-16T11:01:49.668Z,54.93
2017-10-16T11:04:16.476Z,51.57
2017-10-16T11:06:43.265Z,49.83
2017-10-16T11:09:10.103Z,48.20
2017-10-16T11:11:36.914Z,44.90
2017-10-16T11:14:04.362Z,50.73
2017-10-16T11:16:31.212Z,46.13
2017-10-16T11:18:58.055Z,47.70
2017-10-16T11:21:24.888Z,47.70
2017-10-16T11:23:51.722Z,51.30
2017-10-16T11:26:18.520Z,41.57
2017-10-16T11:28:45.324Z,53.13
2017-10-16T11:31:12.738Z,46.03
2017-10-16T11:33:39.545Z,39.10
2017-10-16T11:36:06.392Z,43.90
2017-10-16T11:38:33.265Z,39.07
2017-10-16T11:41:00.128Z,52.23
2017-10-16T11:43:26.925Z,42.17
2017-10-16T11:45:53.759Z,34.50
2017-10-16T11:48:20.594Z,46.80
2017-10-16T11:50:47.543Z,46.63
2017-10-16T11:53:14.433Z,35.67
2017-10-16T11:55:41.607Z,51.77
2017-10-16T11:58:08.699Z,41.90
2017-10-16T12:00:35.559Z,36.27
2017-10-16T12:03:02.358Z,42.63
2017-10-16T12:05:29.149Z,38.97
2017-10-16T12:07:56.103Z,41.87
2017-10-16T12:10:23.872Z,41.60
2017-10-16T12:12:50.696Z,45.93
2017-10-16T12:15:17.526Z,37.33
2017-10-16T12:17:44.495Z,38.60
2017-10-16T12:20:11.279Z,41.37
2017-10-16T12:22:38.142Z,45.10
2017-10-16T12:25:04.987Z,40.20
2017-10-16T12:27:32.302Z,46.77
2017-10-16T12:29:59.187Z,42.50
2017-10-16T12:32:26.011Z,36.13
2017-10-16T12:34:53.319Z,32.00
2017-10-16T12:37:20.158Z,43.70
2017-10-16T12:39:46.948Z,39.67
2017-10-16T12:42:13.798Z,43.30
2017-10-16T12:44:40.635Z,54.80
2017-10-16T12:47:07.424Z,42.23
2017-10-16T12:49:34.244Z,40.50
2017-10-16T12:52:01.071Z,43.27
2017-10-16T12:54:27.864Z,39.67
2017-10-16T12:56:54.694Z,39.33
2017-10-16T12:59:21.521Z,45.33
2017-10-16T13:01:48.587Z,44.57
2017-10-16T13:04:15.449Z,45.47
2017-10-16T13:06:42.322Z,38.33
2017-10-16T13:09:09.718Z,47.10
2017-10-16T13:11:37.115Z,43.50
2017-10-16T13:14:03.975Z,42.43
2017-10-16T13:16:30.794Z,47.03
2017-10-16T13:18:58.343Z,41.03
2017-10-16T13:21:25.231Z,43.23
2017-10-16T13:23:52.093Z,43.50
2017-10-16T13:26:18.908Z,45.20
2017-10-16T13:28:45.837Z,44.97
2017-10-16T13:31:12.719Z,44.50
2017-10-16T13:33:39.534Z,53.10
2017-10-16T13:36:06.479Z,46.60
2017-10-16T13:38:33.998Z,42.37
2017-10-16T13:41:00.854Z,44.33
2017-10-16T13:43:28.092Z,44.37
2017-10-16T13:45:55.052Z,44.23
2017-10-16T13:48:22.015Z,49.30
2017-10-16T13:50:48.895Z,46.07
2017-10-16T13:53:15.863Z,49.93
2017-10-16T13:55:42.917Z,52.23
2017-10-16T13:58:09.996Z,47.30
2017-10-16T14:00:36.822Z,55.90
2017-10-16T14:03:03.662Z,50.90
2017-10-16T14:05:30.723Z,45.53
2017-10-16T14:07:57.571Z,43.63
2017-10-16T14:10:24.461Z,49.07
2017-10-16T14:12:51.340Z,46.67
2017-10-16T14:15:18.155Z,49.67
2017-10-16T14:17:44.948Z,42.77
2017-10-16T14:20:11.787Z,44.50
2017-10-16T14:22:38.636Z,45.80
2017-10-16T14:25:05.443Z,43.90
2017-10-16T14:27:32.282Z,44.10
2017-10-16T14:29:59.180Z,45.47
2017-10-16T14:32:25.975Z,42.67
2017-10-16T14:34:53.785Z,41.60
2017-10-16T14:37:20.879Z,44.20
2017-10-16T14:39:47.723Z,44.97
2017-10-16T14:42:14.577Z,45.90
2017-10-16T14:44:41.380Z,52.00
2017-10-16T14:47:08.951Z,40.40
2017-10-16T14:49:35.804Z,49.50
2017-10-16T14:52:03.556Z,49.30
2017-10-16T14:54:31.396Z,45.17
2017-10-16T14:56:58.638Z,43.73
2017-10-16T14:59:25.451Z,49.23
2017-10-16T15:01:52.269Z,43.40
2017-10-16T15:04:19.724Z,41.83
2017-10-16T15:06:46.876Z,46.87
2017-10-16T15:11:45.283Z,45.60
2017-10-16T15:14:12.783Z,56.00
2017-10-16T15:16:39.593Z,44.40
2017-10-16T15:19:06.430Z,43.97
2017-10-16T15:21:33.250Z,41.63
2017-10-16T15:24:00.725Z,41.30
2017-10-16T15:26:27.585Z,49.97
2017-10-16T15:28:54.371Z,51.53
2017-10-16T15:31:22.132Z,50.90
2017-10-16T15:33:49.046Z,51.53
2017-10-16T15:36:15.849Z,52.90
2017-10-16T15:38:43.444Z,51.87
2017-10-16T15:41:10.288Z,55.90
2017-10-16T15:43:37.102Z,55.47
2017-10-16T15:46:03.907Z,52.10
2017-10-16T15:48:30.785Z,57.43
2017-10-16T15:50:57.908Z,53.03
2017-10-16T15:53:24.699Z,52.73
2017-10-16T15:55:51.891Z,57.10
2017-10-16T15:58:19.308Z,63.57
2017-10-16T16:00:46.121Z,57.77
2017-10-16T16:03:12.955Z,62.33
2017-10-16T16:05:39.786Z,60.97
2017-10-16T16:10:39.867Z,57.67
2017-10-16T16:13:06.678Z,62.43
2017-10-16T16:15:33.491Z,61.77
2017-10-16T16:18:00.625Z,63.13
2017-10-16T16:20:27.448Z,70.00
2017-10-16T16:22:54.963Z,65.60
2017-10-16T16:25:22.522Z,65.90
2017-10-16T16:27:49.361Z,61.63
2017-10-16T16:30:16.193Z,63.93
2017-10-16T16:32:43.058Z,57.80
2017-10-16T16:35:09.874Z,65.40
2017-10-16T16:37:36.663Z,71.83
2017-10-16T16:40:03.530Z,71.73
2017-10-16T16:42:30.418Z,67.00
2017-10-16T16:44:57.252Z,67.33
2017-10-16T16:47:24.097Z,67.90
2017-10-16T16:52:24.167Z,68.30
2017-10-16T16:54:50.950Z,72.50
2017-10-16T16:57:17.850Z,77.07
2017-10-16T16:59:44.696Z,79.60
2017-10-16T17:02:11.567Z,66.97
2017-10-16T17:04:38.360Z,73.00
2017-10-16T17:07:05.314Z,73.40
2017-10-16T17:09:32.171Z,77.33
2017-10-16T17:11:58.992Z,70.33
2017-10-16T17:14:25.879Z,78.27
2017-10-16T17:16:52.693Z,74.60
2017-10-16T17:19:19.503Z,76.00
2017-10-16T17:21:46.342Z,69.73
2017-10-16T17:24:13.190Z,68.20
2017-10-16T17:26:40.002Z,69.73
2017-10-16T17:29:06.854Z,58.37
2017-10-16T17:31:33.659Z,70.50
2017-10-16T17:34:00.444Z,73.40
2017-10-16T17:36:27.270Z,70.73
2017-10-16T17:38:54.071Z,67.43
2017-10-16T17:41:20.889Z,68.80
2017-10-16T17:43:47.738Z,67.43
2017-10-16T17:46:14.602Z,71.97
2017-10-16T17:48:41.400Z,65.60
2017-10-16T17:51:08.241Z,65.70
2017-10-16T17:53:35.003Z,75.17
2017-10-16T17:56:01.824Z,68.77
2017-10-16T17:58:28.694Z,71.67
2017-10-16T18:00:55.502Z,78.53
2017-10-16T18:03:22.291Z,71.27
2017-10-16T18:05:49.180Z,75.40
2017-10-16T18:08:15.980Z,69.03
2017-10-16T18:10:42.797Z,65.57
2017-10-16T18:13:09.620Z,76.57
2017-10-16T18:15:36.442Z,73.40
2017-10-16T18:18:03.261Z,70.57
2017-10-16T18:20:30.103Z,57.50
2017-10-16T18:22:56.901Z,69.93
2017-10-16T18:25:23.735Z,62.33
2017-10-16T18:27:50.615Z,66.73
2017-10-16T18:30:17.827Z,67.00
2017-10-16T18:32:44.655Z,59.30
2017-10-16T18:35:12.620Z,67.17
2017-10-16T18:37:39.462Z,61.57
2017-10-16T18:40:06.264Z,63.10
2017-10-16T18:42:33.146Z,62.77
2017-10-16T18:45:00.012Z,55.33
2017-10-16T18:47:26.803Z,61.93
2017-10-16T18:49:53.800Z,59.50
2017-10-16T18:52:21.467Z,58.90
2017-10-16T18:54:48.633Z,62.10
2017-10-16T18:57:15.486Z,67.03
2017-10-16T18:59:42.285Z,56.70
2017-10-16T19:02:09.941Z,63.10
2017-10-16T19:04:36.779Z,61.57
2017-10-16T19:07:03.620Z,58.23
2017-10-16T19:09:30.678Z,56.57
2017-10-16T19:11:57.562Z,58.90
2017-10-16T19:14:24.370Z,58.60
2017-10-16T19:16:51.684Z,49.50
2017-10-16T19:19:18.918Z,61.40
2017-10-16T19:21:46.709Z,71.77
2017-10-16T19:24:13.869Z,57.73
2017-10-16T19:26:40.723Z,60.50
2017-10-16T19:29:07.530Z,57.00
2017-10-16T19:31:34.908Z,52.47
2017-10-16T19:34:02.285Z,54.80
2017-10-16T19:36:29.652Z,58.43
2017-10-16T19:38:57.320Z,56.53
2017-10-16T19:41:24.372Z,62.53
2017-10-16T19:43:51.521Z,47.00
2017-10-16T19:46:18.883Z,50.50
2017-10-16T19:48:46.247Z,54.63
2017-10-16T19:51:13.702Z,51.00
2017-10-16T19:53:40.658Z,54.50
2017-10-16T19:56:08.222Z,57.90
2017-10-16T19:58:35.382Z,60.03
2017-10-16T20:01:02.606Z,56.27
2017-10-16T20:03:29.515Z,58.53
2017-10-16T20:05:56.326Z,63.80
2017-10-16T20:08:23.449Z,58.77
2017-10-16T20:10:50.637Z,59.13
2017-10-16T20:13:17.849Z,52.50
2017-10-16T20:16:12.830Z,53.03
2017-10-16T20:18:39.674Z,62.00
2017-10-16T20:21:06.551Z,54.83
2017-10-16T20:23:50.933Z,65.23
2017-10-16T20:26:17.743Z,55.40
2017-10-16T20:28:44.544Z,59.90
2017-10-16T20:31:11.448Z,62.87
2017-10-16T20:33:38.282Z,58.30
2017-10-16T20:36:05.137Z,56.23
2017-10-16T20:38:31.977Z,48.27
2017-10-16T20:40:58.796Z,58.90
2017-10-16T20:43:25.619Z,49.63
2017-10-16T20:45:52.455Z,57.83
2017-10-16T20:48:19.253Z,50.30
2017-10-16T20:50:46.062Z,47.63
2017-10-16T20:53:12.914Z,57.53
2017-10-16T20:55:39.713Z,45.27
2017-10-16T20:58:06.481Z,48.40
2017-10-16T21:00:33.399Z,50.10
2017-10-16T21:03:00.203Z,44.03
2017-10-16T21:05:27.004Z,50.77
2017-10-16T21:07:53.855Z,51.43
2017-10-16T21:10:20.630Z,42.17
2017-10-16T21:12:47.467Z,45.80
2017-10-16T21:15:14.341Z,45.70
2017-10-16T21:17:41.153Z,55.10
2017-10-16T21:20:07.987Z,50.87
2017-10-16T21:22:34.843Z,44.03
2017-10-16T21:25:01.676Z,45.57
2017-10-16T21:27:28.544Z,51.17
2017-10-16T21:29:55.382Z,45.33
2017-10-16T21:32:22.196Z,47.90
2017-10-16T21:34:49.015Z,42.17
2017-10-16T21:37:15.863Z,45.00
2017-10-16T21:39:42.640Z,41.00
2017-10-16T21:42:09.486Z,48.43
2017-10-16T21:44:36.308Z,41.97
2017-10-16T21:47:03.156Z,43.60
2017-10-16T21:49:29.992Z,45.43
2017-10-16T21:51:56.962Z,40.77
2017-10-16T21:54:23.786Z,40.20
2017-10-16T21:56:50.636Z,37.30
2017-10-16T21:59:17.493Z,36.70
2017-10-16T22:01:44.531Z,33.20
2017-10-16T22:04:11.374Z,37.90
2017-10-16T22:06:38.281Z,39.37
2017-10-16T22:09:05.135Z,33.77
2017-10-16T22:11:31.917Z,37.90
